Time;durP1;ratioP1;P1;durP2;ratioP2;P2;SDS_P1;SDS_P2;PMS_P1;PMS_P2;Temp;Humidity;BMP_temperature;BMP_pressure;BME280_temperature;BME280_humidity;BME280_pressure;Samples;Min_cycle;Max_cycle;Signal;HPM_P1;HPM_P2
2022/05/16 00:02:08;;;;;;;22.70;12.05;;;;;;;12.96;73.31;97896.66;6190491;23;20020;-78
2022/05/16 00:04:39;;;;;;;22.45;12.65;;;;;;;12.96;73.23;97892.13;6215761;23;20095;-78
2022/05/16 00:07:05;;;;;;;26.90;14.25;;;;;;;12.87;73.38;97895.88;6215460;23;20016;-80
2022/05/16 00:09:31;;;;;;;23.35;14.27;;;;;;;12.82;73.82;97896.34;6216896;23;20021;-79
2022/05/16 00:11:57;;;;;;;24.13;14.25;;;;;;;12.61;74.58;97893.41;6215621;23;20028;-79
2022/05/16 00:14:23;;;;;;;26.98;14.43;;;;;;;12.59;74.78;97892.75;6215416;23;20020;-79
2022/05/16 00:16:50;;;;;;;31.83;16.02;;;;;;;12.51;75.19;97884.72;6190424;23;20051;-79
2022/05/16 00:19:16;;;;;;;40.30;15.77;;;;;;;12.64;75.00;97896.59;6215271;23;20398;-79
2022/05/16 00:21:42;;;;;;;29.73;17.02;;;;;;;12.73;74.93;97888.53;6214866;23;20044;-81
2022/05/16 00:24:08;;;;;;;33.30;17.35;;;;;;;12.81;74.77;97894.69;6190993;23;20028;-79
2022/05/16 00:26:34;;;;;;;29.15;17.25;;;;;;;12.87;74.49;97891.34;6190029;23;20020;-79
2022/05/16 00:29:00;;;;;;;34.92;18.00;;;;;;;12.92;74.12;97892.66;6190474;23;20013;-79
2022/05/16 00:31:26;;;;;;;32.15;17.08;;;;;;;12.95;74.64;97892.31;6217349;23;20347;-79
2022/05/16 00:33:52;;;;;;;33.42;18.30;;;;;;;13.06;73.93;97894.63;6215150;23;20349;-80
2022/05/16 00:36:18;;;;;;;34.38;18.65;;;;;;;13.01;74.24;97883.56;6190059;23;20059;-81
2022/05/16 00:38:44;;;;;;;29.88;18.10;;;;;;;13.06;74.14;97878.53;6190836;23;20048;-80
2022/05/16 00:41:10;;;;;;;29.05;17.52;;;;;;;13.07;74.16;97870.28;6215199;23;20440;-80
2022/05/16 00:43:42;;;;;;;32.20;18.33;;;;;;;13.11;74.01;97892.25;6190184;23;20017;-78
2022/05/16 00:46:08;;;;;;;35.78;19.55;;;;;;;13.08;73.99;97892.59;6215285;23;20021;-80
2022/05/16 00:48:34;;;;;;;49.72;22.20;;;;;;;13.07;73.85;97888.25;6189805;23;20027;-80
2022/05/16 00:51:02;;;;;;;127.30;38.17;;;;;;;13.07;74.17;97896.28;6214986;23;20016;-81
2022/05/16 00:53:29;;;;;;;121.35;39.13;;;;;;;13.07;74.27;97901.66;6165475;23;20032;-80
2022/05/16 00:55:55;;;;;;;123.05;42.85;;;;;;;13.01;74.27;97896.97;6190610;23;20503;-81
2022/05/16 00:58:21;;;;;;;101.90;38.97;;;;;;;13.05;74.25;97896.47;6190563;23;20024;-81
2022/05/16 01:00:48;;;;;;;79.47;35.60;;;;;;;13.03;74.19;97879.69;6214931;23;20545;-80
2022/05/16 01:06:07;;;;;;;55.97;28.95;;;;;;;13.11;74.04;97884.19;6216113;23;20020;-81
2022/05/16 01:08:36;;;;;;;43.30;25.20;;;;;;;13.14;73.71;97891.91;6214825;23;20016;-80
2022/05/16 01:11:08;;;;;;;43.67;25.95;;;;;;;13.22;73.75;97897.22;6189920;23;20147;-80
2022/05/16 01:13:34;;;;;;;39.50;24.20;;;;;;;13.19;73.58;97888.69;6190035;23;20024;-80
2022/05/16 01:16:02;;;;;;;38.30;21.80;;;;;;;13.07;73.91;97885.56;6216426;23;20044;-80
2022/05/16 01:18:28;;;;;;;42.85;21.90;;;;;;;13.07;73.92;97882.88;6190695;23;20021;-80
2022/05/16 01:21:15;;;;;;;36.45;21.33;;;;;;;13.21;73.70;97884.00;6190037;23;20016;-80
2022/05/16 01:23:45;;;;;;;31.52;19.08;;;;;;;13.11;73.95;97887.72;6216197;23;20020;-80
2022/05/16 01:26:24;;;;;;;31.60;19.30;;;;;;;13.06;73.93;97879.34;6164928;23;20031;-80
2022/05/16 01:28:52;;;;;;;26.77;16.25;;;;;;;13.11;73.66;97886.88;6216256;23;20053;-80
2022/05/16 01:31:18;;;;;;;29.02;16.88;;;;;;;13.19;73.67;97883.31;6214678;23;20070;-80
2022/05/16 01:33:44;;;;;;;26.98;16.70;;;;;;;13.17;73.08;97880.81;6189254;23;20441;-81
2022/05/16 01:36:10;;;;;;;26.50;16.27;;;;;;;13.23;73.41;97888.19;6215816;23;20066;-79
2022/05/16 01:38:36;;;;;;;23.80;16.75;;;;;;;13.29;73.17;97887.50;6214484;23;20163;-80
2022/05/16 01:41:05;;;;;;;20.48;14.88;;;;;;;13.31;73.08;97893.53;6214359;23;20032;-79
2022/05/16 01:43:55;;;;;;;25.88;16.17;;;;;;;13.28;73.00;97887.69;6213883;23;20090;-81
2022/05/16 01:46:40;;;;;;;27.45;15.35;;;;;;;13.35;72.84;97881.44;6189243;23;20019;-80
2022/05/16 01:49:09;;;;;;;26.52;15.13;;;;;;;13.56;72.83;97879.97;6189513;23;20468;-80
2022/05/16 01:51:36;;;;;;;23.08;14.90;;;;;;;13.55;72.36;97884.50;6239545;23;20086;-79
2022/05/16 01:54:03;;;;;;;27.73;15.55;;;;;;;13.58;71.89;97872.59;6189588;23;20107;-79
2022/05/16 01:56:33;;;;;;;22.90;14.63;;;;;;;13.60;71.72;97881.28;6215487;23;20043;-81
2022/05/16 01:59:01;;;;;;;21.42;14.63;;;;;;;13.64;71.24;97887.13;6213976;23;20020;-81
2022/05/16 02:01:28;;;;;;;22.55;15.07;;;;;;;13.73;71.28;97881.53;6214461;23;20104;-79
2022/05/16 02:03:54;;;;;;;24.38;14.18;;;;;;;13.76;70.74;97886.53;6189263;23;20067;-80
2022/05/16 02:06:20;;;;;;;23.73;13.82;;;;;;;13.90;70.91;97881.41;6190246;23;20020;-80
2022/05/16 02:08:49;;;;;;;21.88;14.50;;;;;;;13.93;70.35;97883.75;6166660;23;20043;-82
2022/05/16 02:11:16;;;;;;;22.58;13.65;;;;;;;13.91;69.87;97878.53;6220793;23;20147;-81
2022/05/16 02:13:45;;;;;;;17.10;12.60;;;;;;;13.92;70.06;97879.41;6218184;23;20487;-80
2022/05/16 02:16:11;;;;;;;22.35;14.05;;;;;;;14.01;70.31;97872.94;6215057;23;20093;-82
2022/05/16 02:18:37;;;;;;;19.83;12.75;;;;;;;13.95;69.67;97862.91;6213989;23;20052;-80
2022/05/16 02:26:33;;;;;;;28.92;16.23;;;;;;;14.05;69.87;97879.59;6214033;23;20333;-78
2022/05/16 02:28:59;;;;;;;28.90;16.27;;;;;;;14.07;69.98;97882.97;6213674;23;20079;-79
2022/05/16 02:31:25;;;;;;;30.77;17.08;;;;;;;14.13;69.71;97881.38;6213929;23;20024;-78
2022/05/16 02:33:51;;;;;;;30.02;17.65;;;;;;;14.17;69.49;97883.53;6188893;23;20119;-78
2022/05/16 02:36:17;;;;;;;34.15;16.90;;;;;;;14.21;69.41;97882.16;6188394;23;20021;-79
2022/05/16 02:38:43;;;;;;;35.30;19.00;;;;;;;14.18;68.81;97869.09;6188434;23;20020;-80
2022/05/16 02:41:09;;;;;;;44.47;21.80;;;;;;;14.29;68.80;97892.84;6188949;23;20069;-81
2022/05/16 02:43:35;;;;;;;47.83;21.17;;;;;;;14.03;69.37;97884.34;6213790;23;20023;-83
2022/05/16 02:46:01;;;;;;;47.60;23.23;;;;;;;14.12;69.48;97902.06;6189692;23;20017;-81
2022/05/16 02:48:27;;;;;;;49.50;22.85;;;;;;;14.09;69.39;97894.34;6163698;23;20430;-81
2022/05/16 02:50:52;;;;;;;45.92;22.35;;;;;;;14.01;69.13;97883.69;6215108;23;20020;-79
2022/05/16 02:53:18;;;;;;;51.35;24.15;;;;;;;14.04;69.63;97889.53;6163917;23;20024;-79
2022/05/16 02:55:44;;;;;;;65.00;26.50;;;;;;;14.02;69.81;97894.22;6213793;23;20020;-81
2022/05/16 02:58:11;;;;;;;56.15;26.27;;;;;;;14.05;70.06;97901.94;6163932;23;20021;-80
2022/05/16 03:00:38;;;;;;;57.28;26.42;;;;;;;14.12;70.38;97902.06;6213718;23;20103;-81
2022/05/16 03:03:04;;;;;;;39.05;20.80;;;;;;;14.15;70.06;97892.81;6213717;23;20020;-81
2022/05/16 03:05:30;;;;;;;39.67;20.35;;;;;;;14.07;69.88;97896.41;6215251;23;20355;-81
2022/05/16 03:07:56;;;;;;;34.10;17.88;;;;;;;14.13;70.17;97886.75;6163976;23;20021;-80
2022/05/16 03:10:22;;;;;;;30.08;16.25;;;;;;;14.30;70.05;97881.06;6214505;23;20047;-88
2022/05/16 03:12:49;;;;;;;24.23;14.98;;;;;;;14.33;69.14;97861.91;6214573;23;20040;-79
2022/05/16 03:15:16;;;;;;;28.45;14.82;;;;;;;14.58;69.08;97892.09;6163748;23;20017;-80
2022/05/16 03:17:42;;;;;;;22.80;13.80;;;;;;;14.47;68.36;97867.47;6188796;23;20020;-87
2022/05/16 03:20:10;;;;;;;17.45;12.57;;;;;;;14.64;68.39;97885.16;6215595;23;20021;-82
2022/05/16 03:22:36;;;;;;;21.10;12.20;;;;;;;14.73;68.27;97883.19;6190145;23;20107;-79
2022/05/16 03:25:03;;;;;;;15.40;9.73;;;;;;;15.04;69.35;97896.44;6214636;23;20106;-79
2022/05/16 03:27:29;;;;;;;19.45;11.77;;;;;;;15.10;67.41;97890.34;6215940;23;20013;-84
2022/05/16 03:29:55;;;;;;;19.55;12.00;;;;;;;15.08;66.85;97881.59;6215292;23;20024;-77
2022/05/16 03:32:21;;;;;;;17.27;11.70;;;;;;;14.96;67.11;97889.31;6218733;23;20027;-84
2022/05/16 03:34:53;;;;;;;16.10;11.23;;;;;;;15.11;66.73;97880.41;6216565;23;20534;-82
2022/05/16 03:37:18;;;;;;;15.98;11.15;;;;;;;15.17;66.69;97888.56;6215205;23;20407;-80
2022/05/16 03:42:30;;;;;;;15.45;10.25;;;;;;;15.13;66.26;97883.75;6190850;23;20017;-83
2022/05/16 03:44:56;;;;;;;14.68;11.35;;;;;;;15.06;66.58;97884.50;6190823;23;20297;-82
2022/05/16 03:47:22;;;;;;;14.93;11.43;;;;;;;15.08;67.13;97889.66;6217260;23;20028;-82
2022/05/16 03:49:48;;;;;;;15.38;10.05;;;;;;;15.23;66.69;97892.34;6215969;23;20373;-85
2022/05/16 03:52:14;;;;;;;17.00;10.32;;;;;;;15.22;66.34;97888.81;6215879;23;20024;-88
2022/05/16 03:54:43;;;;;;;15.45;9.50;;;;;;;15.28;66.48;97871.94;6216018;23;20031;-86
2022/05/16 03:57:10;;;;;;;11.45;8.93;;;;;;;15.35;66.16;97863.94;6217113;23;20020;-85
2022/05/16 03:59:36;;;;;;;11.75;8.95;;;;;;;15.36;65.95;97872.84;6215848;23;20025;-84
2022/05/16 04:02:02;;;;;;;12.75;8.98;;;;;;;15.45;65.76;97882.47;6216888;23;20016;-84
2022/05/16 04:04:28;;;;;;;11.70;9.98;;;;;;;15.35;65.37;97873.88;6217005;23;20494;-79
2022/05/16 04:06:54;;;;;;;13.80;8.85;;;;;;;15.22;65.67;97878.06;6216543;23;20016;-81
2022/05/16 04:09:20;;;;;;;12.65;9.13;;;;;;;15.00;66.04;97870.94;6216000;23;20020;-83
2022/05/16 04:11:46;;;;;;;11.05;8.48;;;;;;;14.76;66.64;97883.66;6216930;23;20020;-89
2022/05/16 04:14:13;;;;;;;14.23;9.18;;;;;;;14.60;67.01;97869.56;6191344;23;20017;-86
2022/05/16 04:16:39;;;;;;;12.88;8.40;;;;;;;14.68;68.00;97874.84;6215470;23;20070;-76
2022/05/16 04:19:07;;;;;;;12.80;8.90;;;;;;;15.00;69.94;97873.63;6215226;23;20048;-76
2022/05/16 04:21:37;;;;;;;8.85;7.30;;;;;;;15.23;69.28;97877.06;6214534;23;20023;-78
2022/05/16 04:24:05;;;;;;;16.83;8.98;;;;;;;15.50;67.64;97874.69;6215652;23;20080;-86
2022/05/16 04:26:32;;;;;;;12.43;8.73;;;;;;;15.24;65.59;97859.88;6165622;23;20107;-83
2022/05/16 04:28:58;;;;;;;12.70;8.88;;;;;;;15.19;66.09;97877.59;6190479;23;20345;-80
2022/05/16 04:31:25;;;;;;;12.70;8.27;;;;;;;14.94;66.09;97867.16;6214250;23;20490;-81
2022/05/16 04:33:51;;;;;;;12.80;8.75;;;;;;;14.88;66.82;97859.00;6216663;23;20028;-80
2022/05/16 04:36:17;;;;;;;10.48;7.10;;;;;;;14.74;66.29;97856.13;6239933;23;20047;-80
2022/05/16 04:38:43;;;;;;;17.30;8.55;;;;;;;14.75;66.84;97863.16;6215792;23;20016;-80
2022/05/16 04:43:53;;;;;;;13.70;8.73;;;;;;;14.67;67.67;97860.56;6189909;23;20056;-86
2022/05/16 04:46:19;;;;;;;18.33;8.98;;;;;;;14.70;67.43;97852.13;6189700;23;20028;-89
2022/05/16 04:48:46;;;;;;;17.10;9.10;;;;;;;14.65;68.29;97867.16;6215626;23;20433;-89
2022/05/16 04:51:12;;;;;;;15.65;9.10;;;;;;;14.68;68.65;97854.16;6214556;23;20021;-84
2022/05/16 04:53:38;;;;;;;16.60;9.40;;;;;;;14.62;68.41;97854.91;6188820;23;20079;-83
2022/05/16 04:56:05;;;;;;;14.20;8.73;;;;;;;14.50;68.46;97835.69;6189133;23;20021;-84
2022/05/16 04:58:35;;;;;;;12.20;8.13;;;;;;;14.62;68.35;97854.91;6189852;23;20389;-80
2022/05/16 05:01:03;;;;;;;14.77;8.00;;;;;;;14.61;67.86;97845.16;6213588;23;20294;-82
2022/05/16 05:03:29;;;;;;;10.50;7.63;;;;;;;14.62;67.92;97860.28;6215248;23;20452;-79
2022/05/16 05:05:56;;;;;;;12.05;7.55;;;;;;;14.65;68.14;97862.59;6218087;23;20017;-90
2022/05/16 05:08:22;;;;;;;11.88;7.22;;;;;;;14.52;67.73;97852.50;6189887;23;20020;-80
2022/05/16 05:16:35;;;;;;;11.77;8.13;;;;;;;14.43;68.33;97850.03;6203412;23;20076;-83
2022/05/16 05:19:01;;;;;;;11.63;7.82;;;;;;;14.30;69.67;97845.31;6188917;23;20394;-78
2022/05/16 05:21:27;;;;;;;12.77;7.72;;;;;;;14.47;69.24;97836.03;6189077;23;20103;-79
2022/05/16 05:23:55;;;;;;;10.57;6.55;;;;;;;14.75;68.88;97849.72;6214831;23;20013;-79
2022/05/16 05:26:21;;;;;;;9.98;6.65;;;;;;;14.91;67.99;97839.78;6189892;23;20021;-78
2022/05/16 05:28:47;;;;;;;10.10;6.15;;;;;;;15.05;67.14;97855.09;6214584;23;20356;-79
2022/05/16 05:31:15;;;;;;;7.63;6.22;;;;;;;15.22;67.18;97851.16;6189274;23;20020;-78
2022/05/16 05:33:43;;;;;;;8.15;6.38;;;;;;;15.49;66.13;97843.38;6189462;23;20027;-78
2022/05/16 05:36:09;;;;;;;7.45;5.95;;;;;;;15.71;65.27;97850.47;6239836;23;20111;-78
2022/05/16 05:38:36;;;;;;;9.13;5.80;;;;;;;15.93;64.68;97858.56;6189029;23;20016;-77
2022/05/16 05:41:07;;;;;;;8.65;5.50;;;;;;;16.09;64.00;97847.50;6214420;23;20020;-78
2022/05/16 05:43:33;;;;;;;5.80;4.50;;;;;;;16.39;62.80;97855.41;6214398;23;20021;-77
2022/05/16 05:46:02;;;;;;;5.25;3.70;;;;;;;16.59;61.71;97848.31;6214148;23;20020;-77
2022/05/16 05:48:28;;;;;;;5.38;3.40;;;;;;;16.60;60.21;97857.25;6213963;23;20099;-77
2022/05/16 05:50:54;;;;;;;4.88;2.92;;;;;;;16.59;59.70;97858.28;6214450;23;20016;-79
2022/05/16 05:53:20;;;;;;;5.78;3.00;;;;;;;16.44;59.46;97861.06;6164535;23;20043;-79
2022/05/16 05:55:50;;;;;;;3.10;2.42;;;;;;;16.40;59.45;97857.94;6165620;23;20028;-79
2022/05/16 05:58:17;;;;;;;3.40;2.20;;;;;;;16.44;59.39;97853.00;6215540;23;20020;-78
2022/05/16 06:00:44;;;;;;;5.68;3.20;;;;;;;16.28;59.56;97856.78;6190047;23;20028;-78
2022/05/16 06:03:10;;;;;;;3.97;3.00;;;;;;;16.07;60.42;97865.75;6215040;23;20024;-78
2022/05/16 06:05:36;;;;;;;3.05;2.70;;;;;;;15.96;60.56;97852.78;6188899;23;20116;-79
2022/05/16 06:08:02;;;;;;;2.67;2.30;;;;;;;15.99;61.22;97863.19;6189016;23;20482;-78
2022/05/16 06:10:29;;;;;;;3.00;2.70;;;;;;;16.13;61.48;97856.03;6190175;23;20066;-80
2022/05/16 06:12:55;;;;;;;3.97;3.03;;;;;;;16.18;62.43;97851.75;6189565;23;20021;-78
2022/05/16 06:15:22;;;;;;;4.30;2.75;;;;;;;16.32;61.62;97859.94;6190006;23;20021;-78
2022/05/16 06:17:49;;;;;;;5.20;2.85;;;;;;;16.62;61.81;97853.28;6189515;23;20483;-78
2022/05/16 06:20:15;;;;;;;4.22;2.95;;;;;;;16.75;60.97;97849.91;6239853;23;20024;-78
2022/05/16 06:22:42;;;;;;;5.70;2.92;;;;;;;16.99;61.54;97848.56;6213768;23;20146;-79
2022/05/16 06:27:57;;;;;;;3.30;2.73;;;;;;;17.29;59.03;97827.50;6189085;23;20021;-79
2022/05/16 06:30:23;;;;;;;4.22;3.10;;;;;;;17.30;58.39;97834.59;6188945;23;20158;-78
2022/05/16 06:32:49;;;;;;;3.42;2.67;;;;;;;17.44;58.92;97835.44;6213627;23;20031;-79
2022/05/16 06:35:16;;;;;;;3.42;2.45;;;;;;;17.44;58.47;97836.28;6214146;23;20017;-79
2022/05/16 06:37:42;;;;;;;4.10;2.22;;;;;;;17.26;57.54;97829.78;6188396;23;20021;-78
2022/05/16 06:40:10;;;;;;;9.60;2.58;;;;;;;17.18;58.14;97826.22;6214099;23;20021;-78
2022/05/16 06:42:37;;;;;;;3.33;1.90;;;;;;;17.31;58.62;97803.00;6189002;23;20016;-78
2022/05/16 06:45:04;;;;;;;1.95;1.80;;;;;;;17.61;58.34;97819.72;6188982;23;20016;-78
2022/05/16 06:47:30;;;;;;;2.00;1.77;;;;;;;17.91;56.86;97820.19;6213538;23;20020;-79
2022/05/16 06:49:56;;;;;;;1.60;1.50;;;;;;;17.90;56.09;97808.56;6189358;23;20356;-79
2022/05/16 06:52:24;;;;;;;6.05;4.18;;;;;;;17.84;55.98;97808.56;6214152;23;20020;-83
2022/05/16 06:54:51;;;;;;;9.70;4.88;;;;;;;17.88;56.72;97798.97;6189058;23;20096;-89
2022/05/16 06:57:17;;;;;;;3.53;1.95;;;;;;;18.02;56.11;97811.47;6214340;23;20020;-82
2022/05/16 06:59:43;;;;;;;2.65;1.80;;;;;;;18.07;56.50;97795.44;6164351;23;20016;-85
2022/05/16 07:02:10;;;;;;;5.43;1.90;;;;;;;17.95;56.20;97797.13;6215033;23;20017;-84
2022/05/16 07:04:39;;;;;;;2.95;1.77;;;;;;;17.99;56.66;97789.44;6193174;23;20017;-83
2022/05/16 07:07:09;;;;;;;1.95;1.70;;;;;;;18.15;55.95;97789.00;6217175;23;20016;-86
2022/05/16 07:09:38;;;;;;;3.25;2.00;;;;;;;18.07;55.45;97781.09;6216188;23;20017;-84
2022/05/16 07:12:06;;;;;;;4.15;1.42;;;;;;;18.26;53.34;97790.25;6215270;23;20405;-87
2022/05/16 07:14:33;;;;;;;5.60;1.60;;;;;;;18.13;52.76;97781.09;6164134;23;20055;-82
2022/05/16 07:16:59;;;;;;;5.47;1.50;;;;;;;18.08;52.21;97780.88;6219730;23;20498;-86
2022/05/16 07:19:28;;;;;;;4.10;1.50;;;;;;;18.39;52.15;97773.97;6214914;23;20020;-87
2022/05/16 07:21:55;;;;;;;2.17;1.38;;;;;;;18.81;51.29;97771.84;6213788;23;20084;-80
2022/05/16 07:24:21;;;;;;;3.35;1.70;;;;;;;19.27;50.48;97760.78;6213393;23;20092;-86
2022/05/16 07:29:32;;;;;;;4.82;1.67;;;;;;;19.70;48.77;97767.41;6213353;23;20310;-83
2022/05/16 07:31:58;;;;;;;2.72;1.30;;;;;;;19.76;46.99;97744.88;6216030;23;20031;-90
2022/05/16 07:34:23;;;;;;;5.40;2.00;;;;;;;19.72;46.57;97754.50;6194616;23;20017;-84
2022/05/16 07:36:49;;;;;;;2.13;1.63;;;;;;;19.84;47.11;97755.44;6195214;23;20401;-89
2022/05/16 07:39:15;;;;;;;3.10;1.30;;;;;;;19.62;46.39;97758.50;6187882;23;20020;-85
2022/05/16 07:41:41;;;;;;;2.50;1.35;;;;;;;19.26;47.35;97744.75;6213845;23;20052;-85
2022/05/16 07:44:07;;;;;;;5.10;1.50;;;;;;;19.06;48.29;97732.13;6188521;23;20392;-76
2022/05/16 07:46:33;;;;;;;2.15;1.42;;;;;;;19.04;46.90;97747.78;6189669;23;20120;-91
2022/05/16 07:48:59;;;;;;;3.90;1.45;;;;;;;18.93;45.96;97743.88;6190715;23;20024;-88
2022/05/16 07:51:25;;;;;;;3.55;1.20;;;;;;;18.88;45.64;97741.00;6215930;23;20086;-91
2022/05/16 07:53:51;;;;;;;1.65;1.15;;;;;;;18.87;45.49;97743.91;6215282;23;20470;-91
2022/05/16 07:56:17;;;;;;;2.08;1.33;;;;;;;18.81;45.02;97726.66;6214738;23;20020;-82
2022/05/16 07:58:43;;;;;;;3.45;1.40;;;;;;;19.06;45.06;97728.59;6215581;23;20016;-94
2022/05/16 08:01:09;;;;;;;9.50;1.30;;;;;;;18.88;44.93;97718.47;6218262;23;20039;-92
2022/05/16 08:03:35;;;;;;;5.85;1.33;;;;;;;18.79;45.27;97725.19;6218792;23;20352;-89
2022/05/16 08:06:01;;;;;;;2.08;1.25;;;;;;;18.69;45.93;97720.19;6190894;23;20020;-87
2022/05/16 08:11:11;;;;;;;2.30;1.30;;;;;;;18.18;49.20;97756.13;6215977;23;20023;-90
2022/05/16 08:13:39;;;;;;;1.85;1.40;;;;;;;17.79;51.88;97752.41;6218134;23;20115;-90
2022/05/16 08:16:05;;;;;;;2.15;1.48;;;;;;;17.76;52.71;97762.81;6217777;23;20020;-89
2022/05/16 08:18:31;;;;;;;1.60;1.48;;;;;;;18.19;52.25;97755.09;6217184;23;20078;-89
2022/05/16 08:21:00;;;;;;;1.38;1.27;;;;;;;18.77;51.20;97759.75;6219801;23;20023;-93
2022/05/16 08:23:29;;;;;;;3.08;1.38;;;;;;;18.78;50.09;97762.25;6218154;23;20035;-88
2022/05/16 08:25:59;;;;;;;3.42;1.80;;;;;;;18.80;49.96;97759.31;6219361;23;20019;-87
2022/05/16 08:28:25;;;;;;;1.50;1.40;;;;;;;18.84;49.62;97749.72;6217105;23;20024;-85
2022/05/16 08:30:51;;;;;;;1.60;1.50;;;;;;;19.04;49.25;97774.88;6191678;23;20038;-90
2022/05/16 08:33:18;;;;;;;1.83;1.58;;;;;;;18.87;48.40;97749.31;6225579;23;20094;-86
2022/05/16 08:35:44;;;;;;;2.42;1.30;;;;;;;18.84;48.51;97765.97;6217586;23;20032;-88
2022/05/16 08:41:10;;;;;;;2.05;1.40;;;;;;;17.08;53.45;97798.78;6227395;23;20102;-83
2022/05/16 08:43:59;;;;;;;2.15;1.48;;;;;;;16.64;55.24;97808.09;6219323;23;20020;-88
2022/05/16 08:46:44;;;;;;;2.83;1.75;;;;;;;16.42;55.78;97801.09;6192046;23;20012;-83
2022/05/16 08:49:13;;;;;;;2.05;1.30;;;;;;;16.63;56.78;97792.09;6196310;23;20020;-88
2022/05/16 08:51:41;;;;;;;1.85;1.33;;;;;;;16.75;55.65;97769.78;6198190;23;20020;-81
2022/05/16 08:54:45;;;;;;;2.70;1.70;;;;;;;16.68;55.19;97778.84;6218493;23;20012;-82
2022/05/16 08:57:17;;;;;;;3.30;1.60;;;;;;;16.65;55.38;97771.97;6193224;23;20012;-84
2022/05/16 08:59:55;;;;;;;1.40;1.30;;;;;;;16.52;55.78;97766.53;6240748;23;20024;-81
2022/05/16 09:02:23;;;;;;;2.83;1.60;;;;;;;16.34;56.11;97782.38;6190571;23;20095;-79
2022/05/16 09:05:00;;;;;;;1.42;1.33;;;;;;;16.07;57.56;97786.75;6191306;23;20029;-80
2022/05/16 09:07:34;;;;;;;1.75;1.50;;;;;;;15.83;57.90;97777.22;6190935;23;20016;-83
2022/05/16 09:10:10;;;;;;;1.52;1.42;;;;;;;16.04;58.59;97774.50;6190588;23;20127;-80
2022/05/16 09:12:39;;;;;;;1.90;1.80;;;;;;;16.10;58.76;97771.03;6129784;23;20024;-82
2022/05/16 09:15:34;;;;;;;2.05;1.63;;;;;;;16.34;58.51;97763.50;6153872;23;20049;-80
2022/05/16 09:18:24;;;;;;;1.67;1.58;;;;;;;16.20;57.64;97773.34;6129539;23;20064;-79
2022/05/16 09:21:26;;;;;;;2.90;1.13;;;;;;;16.38;54.93;97773.69;6104894;23;20020;-79
2022/05/16 09:24:07;;;;;;;1.20;1.10;;;;;;;16.24;54.09;97786.25;6104592;23;20017;-80
2022/05/16 09:26:33;;;;;;;1.20;0.90;;;;;;;16.35;52.54;97770.56;6128718;23;20101;-81
2022/05/16 09:29:17;;;;;;;0.82;0.60;;;;;;;16.56;51.01;97775.03;6104314;23;20032;-81
2022/05/16 09:31:48;;;;;;;2.05;0.60;;;;;;;16.88;49.72;97770.84;6104448;23;20089;-82
2022/05/16 09:34:15;;;;;;;1.02;0.80;;;;;;;17.46;49.06;97763.16;6104706;23;20495;-82
2022/05/16 09:36:49;;;;;;;0.85;0.60;;;;;;;18.14;47.57;97771.13;6129252;23;20067;-82
2022/05/16 09:39:23;;;;;;;0.60;0.60;;;;;;;18.41;46.57;97755.69;6154469;23;20017;-84
2022/05/16 09:41:54;;;;;;;1.77;0.75;;;;;;;18.65;45.38;97762.25;6105182;23;20029;-83
2022/05/16 09:44:28;;;;;;;1.27;0.70;;;;;;;18.17;45.89;97773.41;6177658;23;20012;-81
2022/05/16 09:47:13;;;;;;;0.80;0.80;;;;;;;18.02;46.40;97762.81;6190141;23;20123;-82
2022/05/16 09:49:39;;;;;;;1.40;0.85;;;;;;;17.62;46.55;97781.66;6189170;23;20016;-79
2022/05/16 09:52:05;;;;;;;2.60;0.80;;;;;;;17.26;46.71;97773.91;6164773;23;20016;-84
2022/05/16 09:54:37;;;;;;;4.28;0.95;;;;;;;17.09;47.56;97778.84;6191362;23;20016;-78
2022/05/16 09:57:09;;;;;;;1.92;0.85;;;;;;;17.02;48.47;97786.09;6214004;23;20017;-79
2022/05/16 09:59:42;;;;;;;2.55;1.10;;;;;;;16.75;49.68;97788.66;6188345;23;20020;-79
2022/05/16 10:02:29;;;;;;;1.30;1.20;;;;;;;16.57;50.37;97796.41;6187952;23;20025;-78
2022/05/16 10:04:59;;;;;;;4.68;1.10;;;;;;;16.68;48.79;97782.38;6187965;23;20024;-78
2022/05/16 10:07:41;;;;;;;1.95;1.60;;;;;;;17.22;47.70;97789.66;6187942;23;20074;-78
2022/05/16 10:10:12;;;;;;;2.17;1.05;;;;;;;17.75;46.86;97788.13;6163435;23;20104;-77
2022/05/16 10:12:39;;;;;;;2.78;1.10;;;;;;;17.90;45.51;97791.47;6188058;23;20043;-76
2022/05/16 10:15:06;;;;;;;1.77;1.15;;;;;;;17.73;45.91;97786.47;6188140;23;20103;-78
2022/05/16 10:17:36;;;;;;;0.90;0.90;;;;;;;17.93;45.55;97785.66;6163122;23;20013;-80
2022/05/16 10:20:10;;;;;;;1.92;1.48;;;;;;;17.57;46.82;97765.25;6187775;23;20032;-79
2022/05/16 10:22:37;;;;;;;1.20;1.00;;;;;;;17.92;45.04;97773.19;6187723;23;20471;-79
2022/05/16 10:25:08;;;;;;;3.42;0.90;;;;;;;17.65;45.59;97778.56;6188336;23;20016;-79
2022/05/16 10:27:38;;;;;;;1.20;1.10;;;;;;;17.21;46.99;97793.41;6213371;23;20452;-85
2022/05/16 10:30:08;;;;;;;3.00;1.20;;;;;;;16.96;47.34;97770.69;6212954;23;20059;-79
2022/05/16 10:35:33;;;;;;;2.63;1.10;;;;;;;17.21;48.06;97771.81;6215901;23;20021;-82
2022/05/16 10:38:10;;;;;;;2.53;1.08;;;;;;;17.14;48.89;97779.06;6215773;23;20016;-81
2022/05/16 10:40:51;;;;;;;4.45;1.05;;;;;;;17.12;48.29;97745.22;6215895;23;20020;-82
2022/05/16 10:43:41;;;;;;;1.08;1.05;;;;;;;17.41;48.39;97781.81;6215298;23;20356;-80
2022/05/16 10:46:30;;;;;;;1.83;1.30;;;;;;;17.10;50.33;97780.50;6215497;23;20098;-79
2022/05/16 10:49:11;;;;;;;5.38;1.40;;;;;;;16.85;51.45;97787.44;6242026;23;20159;-80
2022/05/16 10:51:58;;;;;;;3.67;2.42;;;;;;;16.67;52.39;97786.09;6190916;23;20048;-80
2022/05/16 10:54:28;;;;;;;1.15;1.15;;;;;;;16.53;52.06;97784.34;6215036;23;20016;-80
2022/05/16 10:57:32;;;;;;;1.13;1.10;;;;;;;16.58;52.63;97789.97;6239888;23;20094;-78
2022/05/16 11:00:12;;;;;;;1.50;1.40;;;;;;;16.70;51.87;97785.72;6184523;23;20025;-79
2022/05/16 11:02:53;;;;;;;2.53;1.23;;;;;;;16.47;51.87;97787.84;6219295;23;20052;-79
2022/05/16 11:05:39;;;;;;;1.40;1.30;;;;;;;15.83;53.30;97782.59;6194886;23;20111;-80
2022/05/16 11:08:29;;;;;;;1.20;1.10;;;;;;;15.66;55.36;97793.66;6218298;23;20372;-80
2022/05/16 11:11:04;;;;;;;1.40;1.40;;;;;;;15.90;54.87;97783.50;6191400;23;20082;-80
2022/05/16 11:13:40;;;;;;;1.70;1.60;;;;;;;17.30;52.11;97779.72;6216838;23;20456;-80
2022/05/16 11:16:18;;;;;;;1.30;1.30;;;;;;;18.28;49.00;97772.78;6215406;23;20058;-79
2022/05/16 11:19:07;;;;;;;1.20;1.20;;;;;;;18.61;47.04;97772.69;6215666;23;20020;-80
2022/05/16 11:21:44;;;;;;;1.40;1.30;;;;;;;18.65;47.69;97763.13;6189255;23;20090;-80
2022/05/16 11:24:17;;;;;;;1.30;1.20;;;;;;;19.10;45.22;97776.69;6189876;23;20016;-80
2022/05/16 11:27:12;;;;;;;1.23;1.10;;;;;;;19.49;43.28;97769.41;6189728;23;20582;-79
2022/05/16 11:29:57;;;;;;;1.50;1.38;;;;;;;18.46;45.27;97780.22;6188571;23;20020;-82
2022/05/16 11:32:40;;;;;;;0.90;0.90;;;;;;;18.50;45.89;97772.50;6215030;23;20056;-81
2022/05/16 11:35:20;;;;;;;1.60;1.50;;;;;;;19.23;44.88;97764.16;6165641;23;20027;-80
2022/05/16 11:38:09;;;;;;;5.10;2.17;;;;;;;20.68;43.41;97756.72;6214299;23;20357;-79
2022/05/16 11:40:58;;;;;;;5.00;1.45;;;;;;;22.80;40.04;97747.22;6189607;23;20024;-80
2022/05/16 11:43:36;;;;;;;2.25;1.17;;;;;;;23.05;36.32;97754.28;6174519;23;20021;-79
2022/05/16 11:46:29;;;;;;;4.45;1.27;;;;;;;22.50;36.16;97726.44;6215342;23;20071;-80
2022/05/16 11:49:24;;;;;;;2.83;1.20;;;;;;;20.95;39.62;97768.13;6215317;23;20029;-79
2022/05/16 11:52:03;;;;;;;2.03;0.88;;;;;;;20.04;40.84;97766.94;6190257;23;20063;-79
2022/05/16 11:54:36;;;;;;;2.15;1.02;;;;;;;19.08;42.49;97765.25;6215840;23;20144;-79
2022/05/16 12:03:08;;;;;;;1.10;1.00;;;;;;;18.77;44.16;97751.63;6191576;23;20017;-81
2022/05/16 12:05:42;;;;;;;2.13;1.20;;;;;;;18.49;45.06;97750.03;6191275;23;20013;-81
2022/05/16 12:08:25;;;;;;;4.82;1.10;;;;;;;18.60;44.76;97765.59;6216371;23;20122;-79
2022/05/16 12:11:00;;;;;;;1.92;0.77;;;;;;;20.28;40.71;97742.75;6190128;23;20035;-81
2022/05/16 12:13:29;;;;;;;0.82;0.82;;;;;;;21.66;38.53;97746.69;6189842;23;20075;-80
2022/05/16 12:16:13;;;;;;;2.50;0.90;;;;;;;22.12;37.97;97766.91;6215022;23;20024;-79
2022/05/16 12:19:07;;;;;;;0.80;0.80;;;;;;;22.44;37.10;97748.34;6190157;23;20020;-80
2022/05/16 12:21:35;;;;;;;2.60;0.90;;;;;;;23.59;34.99;97754.81;6214220;23;20103;-82